createdAt,value
2022-08-27T00:00:45.865Z,18.53
2022-08-27T00:02:47.880Z,18.45
2022-08-27T00:04:49.687Z,18.50
2022-08-27T00:06:51.768Z,18.51
2022-08-27T00:08:54.875Z,18.43
2022-08-27T00:10:56.766Z,18.34
2022-08-27T00:12:58.582Z,18.43
2022-08-27T00:15:00.532Z,18.44
2022-08-27T00:17:02.638Z,18.49
2022-08-27T00:19:04.735Z,18.42
2022-08-27T00:21:07.054Z,18.37
2022-08-27T00:23:08.899Z,18.44
2022-08-27T00:25:11.609Z,18.37
2022-08-27T00:27:13.431Z,18.29
2022-08-27T00:29:15.262Z,18.28
2022-08-27T00:31:17.526Z,18.22
2022-08-27T00:33:19.460Z,18.18
2022-08-27T00:35:21.277Z,18.22
2022-08-27T00:37:24.086Z,18.21
2022-08-27T00:39:26.109Z,18.24
2022-08-27T00:41:27.988Z,18.24
2022-08-27T00:43:43.151Z,18.25
2022-08-27T00:45:45.702Z,18.21
2022-08-27T00:47:52.573Z,18.23
2022-08-27T00:50:01.859Z,18.16
2022-08-27T00:52:12.064Z,18.20
2022-08-27T00:54:18.949Z,18.09
2022-08-27T00:56:29.248Z,18.23
2022-08-27T00:58:32.568Z,18.20
2022-08-27T01:00:34.808Z,18.19
2022-08-27T01:02:36.780Z,18.19
2022-08-27T01:04:40.824Z,18.12
2022-08-27T01:06:42.721Z,18.08
2022-08-27T01:08:50.912Z,18.07
2022-08-27T01:10:54.769Z,18.01
2022-08-27T01:12:57.289Z,17.99
2022-08-27T01:15:01.567Z,17.90
2022-08-27T01:17:06.231Z,17.82
2022-08-27T01:19:16.508Z,17.81
2022-08-27T01:21:30.887Z,17.71
2022-08-27T01:23:38.869Z,17.65
2022-08-27T01:25:44.400Z,17.62
2022-08-27T01:27:47.427Z,17.59
2022-08-27T01:29:49.542Z,17.49
2022-08-27T01:31:51.588Z,17.48
2022-08-27T01:33:59.390Z,17.56
2022-08-27T01:36:01.212Z,17.56
2022-08-27T01:38:03.244Z,17.55
2022-08-27T01:40:10.095Z,17.59
2022-08-27T01:42:22.966Z,17.53
2022-08-27T01:44:24.874Z,17.50
2022-08-27T01:46:28.931Z,17.52
2022-08-27T01:48:30.779Z,17.50
2022-08-27T01:50:36.329Z,17.50
2022-08-27T01:52:38.365Z,17.44
2022-08-27T01:54:40.357Z,17.40
2022-08-27T01:56:42.175Z,17.36
2022-08-27T01:58:43.997Z,17.34
2022-08-27T02:00:54.799Z,17.32
2022-08-27T02:02:59.251Z,17.24
2022-08-27T02:05:01.689Z,17.31
2022-08-27T02:07:04.425Z,17.33
2022-08-27T02:09:06.223Z,17.36
2022-08-27T02:11:08.618Z,17.35
2022-08-27T02:13:10.842Z,17.26
2022-08-27T02:15:13.541Z,17.25
2022-08-27T02:17:15.721Z,17.26
2022-08-27T02:19:17.762Z,17.31
2022-08-27T02:21:19.841Z,17.30
2022-08-27T02:23:21.720Z,17.28
2022-08-27T02:25:24.040Z,17.24
2022-08-27T02:27:25.846Z,17.22
2022-08-27T02:29:27.750Z,17.22
2022-08-27T02:31:29.632Z,17.12
2022-08-27T02:33:32.441Z,17.15
2022-08-27T02:35:36.913Z,17.15
2022-08-27T02:37:38.734Z,17.14
2022-08-27T02:39:44.227Z,17.12
2022-08-27T02:41:47.878Z,17.01
2022-08-27T02:43:50.040Z,17.06
2022-08-27T02:45:52.019Z,17.05
2022-08-27T02:47:54.266Z,17.02
2022-08-27T02:49:56.124Z,17.01
2022-08-27T02:51:58.768Z,16.97
2022-08-27T02:54:02.156Z,16.99
2022-08-27T02:56:05.951Z,16.99
2022-08-27T02:58:07.914Z,17.05
2022-08-27T03:00:13.291Z,17.04
2022-08-27T03:02:15.269Z,17.00
2022-08-27T03:04:18.351Z,16.96
2022-08-27T03:06:20.420Z,16.96
2022-08-27T03:08:22.286Z,16.98
2022-08-27T03:10:24.095Z,16.97
2022-08-27T03:12:25.903Z,16.95
2022-08-27T03:14:28.651Z,16.94
2022-08-27T03:16:30.548Z,16.86
2022-08-27T03:18:33.061Z,16.99
2022-08-27T03:20:39.028Z,17.03
2022-08-27T03:22:40.932Z,17.00
2022-08-27T03:24:42.777Z,16.95
2022-08-27T03:26:52.784Z,16.99
2022-08-27T03:28:56.099Z,16.96
2022-08-27T03:31:04.114Z,16.98
2022-08-27T03:33:05.941Z,16.91
2022-08-27T03:35:08.354Z,16.95
2022-08-27T03:37:10.227Z,16.97
2022-08-27T03:39:12.068Z,16.91
2022-08-27T03:41:14.043Z,16.91
2022-08-27T03:43:17.242Z,16.86
2022-08-27T03:45:19.145Z,16.90
2022-08-27T03:47:20.943Z,16.96
2022-08-27T03:49:23.359Z,17.00
2022-08-27T03:51:25.519Z,16.99
2022-08-27T03:53:27.318Z,16.96
2022-08-27T03:55:29.185Z,16.90
2022-08-27T03:57:31.560Z,16.95
2022-08-27T03:59:33.889Z,16.93
2022-08-27T04:01:36.120Z,16.94
2022-08-27T04:03:38.290Z,16.85
2022-08-27T04:05:40.322Z,16.91
2022-08-27T04:07:43.237Z,16.92
2022-08-27T04:09:45.231Z,16.91
2022-08-27T04:11:47.094Z,16.90
2022-08-27T04:13:48.907Z,16.98
2022-08-27T04:15:52.547Z,16.97
2022-08-27T04:17:54.459Z,16.93
2022-08-27T04:19:56.282Z,17.01
2022-08-27T04:22:04.658Z,17.12
2022-08-27T04:24:06.590Z,17.12
2022-08-27T04:26:10.501Z,17.11
2022-08-27T04:28:13.836Z,17.18
2022-08-27T04:30:15.694Z,17.20
2022-08-27T04:32:17.537Z,17.28
2022-08-27T04:34:21.778Z,17.49
2022-08-27T04:36:23.724Z,17.84
2022-08-27T04:38:27.665Z,18.38
2022-08-27T04:40:29.538Z,19.10
2022-08-27T04:42:31.394Z,19.69
2022-08-27T04:44:33.737Z,19.77
2022-08-27T04:46:40.597Z,19.58
2022-08-27T04:48:42.506Z,19.56
2022-08-27T04:50:46.715Z,20.08
2022-08-27T04:52:48.520Z,20.33
2022-08-27T04:54:52.591Z,20.46
2022-08-27T04:56:54.587Z,20.46
2022-08-27T04:58:57.116Z,20.34
2022-08-27T05:00:59.036Z,20.20
2022-08-27T05:03:00.838Z,20.23
2022-08-27T05:05:02.752Z,20.30
2022-08-27T05:07:05.150Z,20.44
2022-08-27T05:09:07.186Z,20.58
2022-08-27T05:11:11.539Z,20.40
2022-08-27T05:13:14.558Z,20.62
2022-08-27T05:15:16.420Z,20.83
2022-08-27T05:17:18.248Z,21.00
2022-08-27T05:19:20.089Z,21.09
2022-08-27T05:21:27.039Z,21.39
2022-08-27T05:23:28.990Z,21.66
2022-08-27T05:25:30.810Z,22.37
2022-08-27T05:27:32.659Z,23.09
2022-08-27T05:29:34.465Z,23.60
2022-08-27T05:31:36.618Z,23.64
2022-08-27T05:33:39.812Z,23.65
2022-08-27T05:35:43.263Z,23.80
2022-08-27T05:37:44.954Z,24.00
2022-08-27T05:39:46.741Z,24.08
2022-08-27T05:41:48.568Z,23.96
2022-08-27T05:43:50.800Z,23.85
2022-08-27T05:45:52.727Z,23.72
2022-08-27T05:47:54.574Z,23.45
2022-08-27T05:49:56.411Z,23.56
2022-08-27T05:51:58.215Z,23.69
2022-08-27T05:54:08.914Z,23.83
2022-08-27T05:56:19.877Z,24.32
2022-08-27T05:58:21.663Z,24.47
2022-08-27T06:00:24.086Z,24.59
2022-08-27T06:02:26.032Z,24.73
2022-08-27T06:04:27.939Z,24.67
2022-08-27T06:06:29.793Z,24.68
2022-08-27T06:08:31.931Z,24.47
2022-08-27T06:10:33.975Z,24.69
2022-08-27T06:12:35.774Z,24.90
2022-08-27T06:14:38.015Z,25.22
2022-08-27T06:16:41.274Z,25.67
2022-08-27T06:18:48.006Z,26.00
2022-08-27T06:20:49.822Z,26.37
2022-08-27T06:22:52.049Z,26.82
2022-08-27T06:24:53.866Z,26.92
2022-08-27T06:26:55.743Z,26.88
2022-08-27T06:29:03.282Z,27.60
2022-08-27T06:31:08.268Z,27.68
2022-08-27T06:33:10.128Z,27.98
2022-08-27T06:35:12.022Z,27.86
2022-08-27T06:37:13.852Z,27.85
2022-08-27T06:39:17.113Z,28.10
2022-08-27T06:41:23.488Z,28.04
2022-08-27T06:43:26.885Z,27.88
2022-08-27T06:45:28.683Z,28.27
2022-08-27T06:47:33.513Z,28.35
2022-08-27T06:49:35.366Z,27.95
2022-08-27T06:51:39.861Z,28.41
2022-08-27T06:53:42.153Z,28.37
2022-08-27T06:55:46.776Z,28.91
2022-08-27T06:57:48.626Z,29.25
2022-08-27T06:59:51.132Z,29.38
2022-08-27T07:01:53.146Z,29.21
2022-08-27T07:04:00.204Z,29.27
2022-08-27T07:06:06.638Z,29.04
2022-08-27T07:08:09.842Z,29.30
2022-08-27T07:10:11.567Z,29.74
2022-08-27T07:12:13.458Z,29.59
2022-08-27T07:14:15.280Z,29.89
2022-08-27T07:16:23.265Z,29.86
2022-08-27T07:18:27.329Z,29.58
2022-08-27T07:20:29.794Z,29.83
2022-08-27T07:22:31.627Z,30.01
2022-08-27T07:24:33.477Z,30.45
2022-08-27T07:26:38.459Z,30.33
2022-08-27T07:28:41.891Z,30.26
2022-08-27T07:30:43.773Z,30.66
2022-08-27T07:32:46.639Z,30.40
2022-08-27T07:34:48.447Z,30.37
2022-08-27T07:36:50.293Z,30.01
2022-08-27T07:39:00.834Z,30.40
2022-08-27T07:41:09.138Z,30.53
2022-08-27T07:43:10.968Z,30.33
2022-08-27T07:45:12.819Z,30.72
2022-08-27T07:47:14.644Z,30.15
2022-08-27T07:49:17.814Z,30.20
2022-08-27T07:51:21.353Z,30.03
2022-08-27T07:53:23.233Z,30.06
2022-08-27T07:55:25.296Z,30.53
2022-08-27T07:57:27.185Z,30.08
2022-08-27T07:59:29.026Z,30.47
2022-08-27T08:01:30.920Z,30.51
2022-08-27T08:03:33.096Z,30.46
2022-08-27T08:05:35.259Z,30.31
2022-08-27T08:07:37.131Z,29.93
2022-08-27T08:09:38.985Z,29.89
2022-08-27T08:11:40.948Z,29.82
2022-08-27T08:13:44.110Z,30.00
2022-08-27T08:15:47.332Z,29.35
2022-08-27T08:17:48.996Z,29.05
2022-08-27T08:20:08.769Z,29.15
2022-08-27T08:22:12.685Z,29.51
2022-08-27T08:24:14.537Z,29.62
2022-08-27T08:26:17.079Z,29.38
2022-08-27T08:28:18.926Z,29.50
2022-08-27T08:30:20.933Z,29.55
2022-08-27T08:32:22.734Z,29.84
2022-08-27T08:34:24.571Z,29.67
2022-08-27T08:36:26.371Z,29.69
2022-08-27T08:38:28.343Z,29.59
2022-08-27T08:40:37.368Z,29.42
2022-08-27T08:42:51.804Z,29.24
2022-08-27T08:44:54.928Z,29.20
2022-08-27T08:47:42.697Z,29.17
2022-08-27T08:50:03.543Z,29.47
2022-08-27T08:52:32.738Z,29.46
2022-08-27T08:54:35.145Z,29.65
2022-08-27T08:57:10.763Z,29.48
2022-08-27T08:59:31.676Z,29.52
2022-08-27T09:01:33.599Z,29.52
2022-08-27T09:03:38.279Z,29.55
2022-08-27T09:05:47.477Z,29.65
2022-08-27T09:10:42.894Z,29.58
2022-08-27T09:12:44.795Z,29.21
2022-08-27T09:15:02.898Z,29.48
2022-08-27T09:17:11.298Z,29.73
2022-08-27T09:19:13.449Z,29.38
2022-08-27T09:21:28.202Z,29.71
2022-08-27T09:23:42.346Z,29.77
2022-08-27T09:25:46.429Z,29.73
2022-08-27T09:27:49.716Z,29.88
2022-08-27T09:29:54.475Z,30.26
2022-08-27T09:32:08.009Z,30.17
2022-08-27T09:34:10.045Z,30.15
2022-08-27T09:36:15.181Z,30.45
2022-08-27T09:38:28.798Z,30.27
2022-08-27T09:40:50.692Z,30.03
2022-08-27T09:42:56.466Z,30.10
2022-08-27T09:44:59.978Z,29.80
2022-08-27T09:47:04.148Z,29.91
2022-08-27T09:49:14.474Z,30.17
2022-08-27T09:51:26.293Z,30.38
2022-08-27T09:53:37.711Z,30.51
2022-08-27T09:55:39.514Z,30.57
2022-08-27T09:57:42.724Z,30.33
2022-08-27T09:59:54.095Z,29.87
2022-08-27T10:01:57.844Z,30.20
2022-08-27T10:04:07.723Z,30.31
2022-08-27T10:06:11.186Z,30.53
2022-08-27T10:08:30.215Z,30.60
2022-08-27T10:10:52.648Z,30.63
2022-08-27T10:13:01.683Z,30.77
2022-08-27T10:15:14.151Z,30.77
2022-08-27T10:17:34.492Z,30.42
2022-08-27T10:20:09.607Z,30.42
2022-08-27T10:22:17.421Z,30.57
2022-08-27T10:24:39.900Z,30.71
2022-08-27T10:27:02.191Z,30.38
2022-08-27T10:29:28.436Z,30.37
2022-08-27T10:31:59.580Z,30.54
2022-08-27T10:34:24.629Z,30.56
2022-08-27T10:36:53.143Z,30.96
2022-08-27T10:39:15.698Z,31.00
2022-08-27T10:41:33.802Z,30.66
2022-08-27T10:44:03.290Z,30.84
2022-08-27T10:46:30.781Z,30.79
2022-08-27T10:48:55.735Z,30.72
2022-08-27T10:51:13.975Z,31.06
2022-08-27T10:53:25.489Z,31.05
2022-08-27T10:55:48.200Z,31.04
2022-08-27T10:58:02.135Z,30.36
2022-08-27T11:00:25.438Z,30.55
2022-08-27T11:02:27.264Z,30.84
2022-08-27T11:04:35.457Z,30.95
2022-08-27T11:06:51.160Z,31.07
2022-08-27T11:09:01.545Z,30.68
2022-08-27T11:13:47.976Z,30.87
2022-08-27T11:15:53.306Z,30.89
2022-08-27T11:18:00.054Z,30.93
2022-08-27T11:20:10.499Z,30.87
2022-08-27T11:22:29.942Z,31.19
2022-08-27T11:24:57.196Z,31.29
2022-08-27T11:27:04.927Z,31.20
2022-08-27T11:29:40.206Z,31.32
2022-08-27T11:31:58.459Z,31.32
2022-08-27T11:34:24.799Z,31.43
2022-08-27T11:36:55.692Z,31.32
2022-08-27T11:39:05.393Z,31.21
2022-08-27T11:41:12.908Z,31.32
2022-08-27T11:43:17.813Z,31.42
2022-08-27T11:45:25.208Z,31.37
2022-08-27T11:47:28.312Z,31.34
2022-08-27T11:49:37.341Z,31.48
2022-08-27T11:51:41.420Z,31.46
2022-08-27T11:53:57.448Z,31.61
2022-08-27T11:56:14.640Z,31.36
2022-08-27T11:58:19.497Z,31.35
2022-08-27T12:00:28.665Z,31.35
2022-08-27T12:02:30.485Z,31.31
2022-08-27T12:04:34.461Z,31.28
2022-08-27T12:06:45.693Z,31.37
2022-08-27T12:08:47.647Z,31.41
2022-08-27T12:11:26.707Z,31.48
2022-08-27T12:14:04.303Z,31.37
2022-08-27T12:16:18.893Z,31.36
2022-08-27T12:18:45.646Z,31.34
2022-08-27T12:21:02.170Z,31.53
2022-08-27T12:23:27.607Z,31.31
2022-08-27T12:25:29.437Z,31.47
2022-08-27T12:27:33.778Z,31.45
2022-08-27T12:29:49.849Z,31.52
2022-08-27T12:32:15.074Z,31.25
2022-08-27T12:34:20.192Z,31.53
2022-08-27T12:36:28.018Z,31.63
2022-08-27T12:38:33.351Z,31.63
2022-08-27T12:41:01.957Z,31.69
2022-08-27T12:43:32.940Z,31.63
2022-08-27T12:45:45.778Z,31.41
2022-08-27T12:47:50.975Z,31.43
2022-08-27T12:50:01.327Z,31.41
2022-08-27T12:52:16.656Z,31.36
2022-08-27T12:54:53.087Z,31.58
2022-08-27T12:57:00.851Z,31.67
2022-08-27T12:59:17.494Z,31.68
2022-08-27T13:01:28.690Z,31.66
2022-08-27T13:03:52.548Z,31.49
2022-08-27T13:05:54.419Z,31.54
2022-08-27T13:07:56.246Z,31.55
2022-08-27T13:10:09.731Z,31.41
2022-08-27T13:12:19.040Z,31.50
2022-08-27T13:14:21.708Z,31.35
2022-08-27T13:16:23.735Z,31.48
2022-08-27T13:18:29.914Z,31.33
2022-08-27T13:20:32.381Z,31.39
2022-08-27T13:22:40.121Z,31.38
2022-08-27T13:24:49.486Z,31.13
2022-08-27T13:26:52.918Z,31.46
2022-08-27T13:28:54.963Z,31.55
2022-08-27T13:31:06.886Z,31.43
2022-08-27T13:33:19.784Z,31.11
2022-08-27T13:35:21.986Z,31.20
2022-08-27T13:37:27.391Z,31.36
2022-08-27T13:39:29.271Z,31.20
2022-08-27T13:41:35.018Z,31.37
2022-08-27T13:43:43.283Z,31.48
2022-08-27T13:45:50.420Z,31.36
2022-08-27T13:47:53.904Z,31.32
2022-08-27T13:50:07.380Z,31.43
2022-08-27T13:52:15.283Z,31.19
2022-08-27T13:54:19.073Z,31.44
2022-08-27T13:56:33.456Z,31.46
2022-08-27T13:58:37.262Z,31.45
2022-08-27T14:00:39.111Z,31.48
2022-08-27T14:02:41.244Z,31.60
2022-08-27T14:05:31.919Z,31.56
2022-08-27T14:07:37.792Z,31.40
2022-08-27T14:09:54.594Z,31.23
2022-08-27T14:12:03.979Z,31.32
2022-08-27T14:14:06.799Z,31.35
2022-08-27T14:16:32.235Z,31.15
2022-08-27T14:18:57.962Z,31.28
2022-08-27T14:20:59.574Z,31.52
2022-08-27T14:23:01.422Z,31.67
2022-08-27T14:25:04.251Z,31.63
2022-08-27T14:27:13.004Z,31.47
2022-08-27T14:29:14.824Z,31.16
2022-08-27T14:31:16.833Z,31.25
2022-08-27T14:33:18.756Z,31.43
2022-08-27T14:35:25.114Z,31.49
2022-08-27T14:37:27.497Z,31.46
2022-08-27T14:39:29.707Z,31.45
2022-08-27T14:41:33.159Z,31.45
2022-08-27T14:43:35.372Z,31.40
2022-08-27T14:45:39.426Z,31.32
2022-08-27T14:47:42.598Z,31.34
2022-08-27T14:49:46.652Z,31.35
2022-08-27T14:51:48.951Z,31.37
2022-08-27T14:53:51.315Z,31.23
2022-08-27T14:55:53.328Z,31.19
2022-08-27T14:57:55.210Z,31.27
2022-08-27T14:59:57.027Z,31.32
2022-08-27T15:02:00.949Z,31.02
2022-08-27T15:04:03.147Z,31.06
2022-08-27T15:06:05.457Z,30.92
2022-08-27T15:08:07.573Z,30.98
2022-08-27T15:10:15.327Z,31.12
2022-08-27T15:12:26.042Z,31.07
2022-08-27T15:14:32.234Z,30.90
2022-08-27T15:16:38.445Z,30.91
2022-08-27T15:18:40.324Z,30.94
2022-08-27T15:20:42.367Z,30.95
2022-08-27T15:22:46.568Z,30.85
2022-08-27T15:24:53.279Z,30.87
2022-08-27T15:26:57.035Z,30.82
2022-08-27T15:29:02.800Z,30.66
2022-08-27T15:31:07.690Z,30.74
2022-08-27T15:33:09.720Z,30.88
2022-08-27T15:35:15.264Z,30.84
2022-08-27T15:37:17.074Z,30.72
2022-08-27T15:39:18.929Z,30.77
2022-08-27T15:41:21.206Z,30.69
2022-08-27T15:43:25.192Z,30.73
2022-08-27T15:45:27.394Z,30.51
2022-08-27T15:47:29.642Z,30.68
2022-08-27T15:49:31.462Z,30.58
2022-08-27T15:51:34.102Z,30.56
2022-08-27T15:53:37.580Z,30.60
2022-08-27T15:55:43.074Z,30.60
2022-08-27T15:57:44.852Z,30.59
2022-08-27T15:59:47.292Z,30.50
2022-08-27T16:01:49.215Z,30.39
2022-08-27T16:03:51.188Z,30.44
2022-08-27T16:05:52.903Z,30.40
2022-08-27T16:07:54.679Z,30.49
2022-08-27T16:09:56.593Z,30.41
2022-08-27T16:11:58.535Z,30.38
2022-08-27T16:14:00.338Z,30.37
2022-08-27T16:16:04.598Z,30.38
2022-08-27T16:18:07.006Z,30.34
2022-08-27T16:20:11.403Z,30.28
2022-08-27T16:22:13.200Z,30.13
2022-08-27T16:24:14.941Z,30.12
2022-08-27T16:26:16.811Z,30.07
2022-08-27T16:28:19.250Z,30.07
2022-08-27T16:30:22.370Z,30.06
2022-08-27T16:32:25.090Z,30.04
2022-08-27T16:34:29.830Z,29.98
2022-08-27T16:36:31.574Z,29.95
2022-08-27T16:38:33.885Z,29.90
2022-08-27T16:40:43.392Z,29.74
2022-08-27T16:42:48.953Z,29.80
2022-08-27T16:44:50.758Z,29.72
2022-08-27T16:46:53.256Z,29.65
2022-08-27T16:49:00.336Z,29.62
2022-08-27T16:51:05.014Z,29.56
2022-08-27T16:53:12.884Z,29.49
2022-08-27T16:55:14.650Z,29.39
2022-08-27T16:57:16.519Z,29.25
2022-08-27T16:59:18.447Z,29.12
2022-08-27T17:01:22.980Z,28.97
2022-08-27T17:03:26.040Z,28.72
2022-08-27T17:05:35.377Z,28.58
2022-08-27T17:07:37.261Z,28.43
2022-08-27T17:09:41.183Z,28.18
2022-08-27T17:11:46.540Z,27.94
2022-08-27T17:13:50.255Z,27.86
2022-08-27T17:15:53.017Z,27.68
2022-08-27T17:17:54.856Z,27.61
2022-08-27T17:19:56.983Z,27.46
2022-08-27T17:22:00.493Z,27.30
2022-08-27T17:24:02.517Z,27.18
2022-08-27T17:26:07.616Z,27.11
2022-08-27T17:28:09.394Z,26.96
2022-08-27T17:30:11.654Z,26.77
2022-08-27T17:32:13.665Z,26.58
2022-08-27T17:34:22.874Z,26.47
2022-08-27T17:36:25.223Z,26.28
2022-08-27T17:38:28.898Z,26.05
2022-08-27T17:40:30.672Z,26.01
2022-08-27T17:42:33.147Z,25.86
2022-08-27T17:44:37.738Z,25.74
2022-08-27T17:46:39.790Z,25.69
2022-08-27T17:48:42.171Z,25.60
2022-08-27T17:50:43.955Z,25.50
2022-08-27T17:52:45.727Z,25.36
2022-08-27T17:54:50.869Z,25.28
2022-08-27T17:56:52.801Z,25.13
2022-08-27T17:58:55.116Z,25.00
2022-08-27T18:00:57.100Z,24.90
2022-08-27T18:02:59.678Z,24.80
2022-08-27T18:05:01.839Z,24.71
2022-08-27T18:07:03.738Z,24.60
2022-08-27T18:09:05.813Z,24.47
2022-08-27T18:11:08.098Z,24.32
2022-08-27T18:13:10.139Z,24.16
2022-08-27T18:15:28.140Z,24.04
2022-08-27T18:17:31.351Z,23.93
2022-08-27T18:19:33.566Z,23.76
2022-08-27T18:21:46.247Z,23.76
2022-08-27T18:23:48.788Z,23.70
2022-08-27T18:25:50.672Z,23.60
2022-08-27T18:27:56.898Z,23.49
2022-08-27T18:29:59.067Z,23.45
2022-08-27T18:32:00.843Z,23.39
2022-08-27T18:34:02.830Z,23.27
2022-08-27T18:36:05.892Z,23.20
2022-08-27T18:38:08.607Z,23.11
2022-08-27T18:40:12.473Z,23.06
2022-08-27T18:42:14.703Z,23.00
2022-08-27T18:44:17.798Z,22.93
2022-08-27T18:46:19.933Z,22.88
2022-08-27T18:48:22.541Z,22.76
2022-08-27T18:50:25.464Z,22.82
2022-08-27T18:52:27.244Z,22.72
2022-08-27T18:54:29.125Z,22.70
2022-08-27T18:56:30.879Z,22.68
2022-08-27T18:58:33.004Z,22.46
2022-08-27T19:00:35.044Z,22.49
2022-08-27T19:02:37.836Z,22.39
2022-08-27T19:04:39.677Z,22.33
2022-08-27T19:06:41.529Z,22.24
2022-08-27T19:08:43.529Z,22.27
2022-08-27T19:10:45.343Z,22.27
2022-08-27T19:12:47.687Z,22.19
2022-08-27T19:14:49.630Z,22.08
2022-08-27T19:16:52.345Z,22.04
2022-08-27T19:18:54.237Z,21.92
2022-08-27T19:20:56.758Z,21.94
2022-08-27T19:22:58.845Z,21.84
2022-08-27T19:25:00.978Z,21.87
2022-08-27T19:27:03.018Z,21.85
2022-08-27T19:29:05.560Z,21.83
2022-08-27T19:31:08.082Z,21.78
2022-08-27T19:33:10.430Z,21.72
2022-08-27T19:35:12.612Z,21.62
2022-08-27T19:37:21.609Z,21.52
2022-08-27T19:39:23.373Z,21.45
2022-08-27T19:41:27.924Z,21.40
2022-08-27T19:43:29.965Z,21.39
2022-08-27T19:45:31.876Z,21.24
2022-08-27T19:47:34.609Z,21.26
2022-08-27T19:49:37.255Z,21.24
2022-08-27T19:51:38.978Z,21.19
2022-08-27T19:53:40.937Z,21.23
2022-08-27T19:55:42.837Z,21.15
2022-08-27T19:57:45.101Z,21.09
2022-08-27T19:59:46.869Z,21.11
2022-08-27T20:01:48.778Z,20.97
2022-08-27T20:03:50.669Z,21.05
2022-08-27T20:05:53.049Z,20.96
2022-08-27T20:07:54.874Z,20.99
2022-08-27T20:09:56.633Z,20.94
2022-08-27T20:12:03.489Z,20.93
2022-08-27T20:14:05.264Z,20.93
2022-08-27T20:16:13.404Z,20.89
2022-08-27T20:18:15.371Z,20.85
2022-08-27T20:20:21.105Z,20.83
2022-08-27T20:22:22.882Z,20.80
2022-08-27T20:24:25.034Z,20.74
2022-08-27T20:26:27.383Z,20.71
2022-08-27T20:28:43.833Z,20.75
2022-08-27T20:30:48.697Z,20.75
2022-08-27T20:32:50.780Z,20.76
2022-08-27T20:34:52.940Z,20.79
2022-08-27T20:36:54.683Z,20.84
2022-08-27T20:38:56.441Z,20.80
2022-08-27T20:40:58.391Z,20.67
2022-08-27T20:43:01.129Z,20.70
2022-08-27T20:45:07.539Z,20.74
2022-08-27T20:47:13.520Z,20.70
2022-08-27T20:49:15.312Z,20.73
2022-08-27T20:51:22.171Z,20.58
2022-08-27T20:53:24.008Z,20.56
2022-08-27T20:55:25.762Z,20.60
2022-08-27T20:57:27.500Z,20.62
2022-08-27T20:59:29.991Z,20.59
2022-08-27T21:01:31.775Z,20.46
2022-08-27T21:03:33.547Z,20.44
2022-08-27T21:05:35.766Z,20.45
2022-08-27T21:07:37.621Z,20.38
2022-08-27T21:09:56.272Z,20.28
2022-08-27T21:11:59.583Z,20.16
2022-08-27T21:14:01.386Z,20.18
2022-08-27T21:16:03.414Z,20.19
2022-08-27T21:18:05.529Z,20.06
2022-08-27T21:20:09.433Z,20.05
2022-08-27T21:22:11.182Z,19.98
2022-08-27T21:24:12.956Z,20.04
2022-08-27T21:26:14.899Z,19.92
2022-08-27T21:28:16.657Z,19.87
2022-08-27T21:30:18.438Z,19.80
2022-08-27T21:32:20.396Z,19.78
2022-08-27T21:34:22.123Z,19.79
2022-08-27T21:36:23.888Z,19.81
2022-08-27T21:38:25.658Z,19.80
2022-08-27T21:40:28.784Z,19.77
2022-08-27T21:42:30.666Z,19.77
2022-08-27T21:44:32.452Z,19.72
2022-08-27T21:46:34.314Z,19.66
2022-08-27T21:48:36.183Z,19.65
2022-08-27T21:50:38.126Z,19.67
2022-08-27T21:52:40.137Z,19.67
2022-08-27T21:54:42.824Z,19.60
2022-08-27T21:56:44.642Z,19.62
2022-08-27T21:58:47.190Z,19.41
2022-08-27T22:00:49.975Z,19.65
2022-08-27T22:02:52.237Z,19.69
2022-08-27T22:04:54.101Z,19.68
2022-08-27T22:06:55.893Z,19.73
2022-08-27T22:08:57.711Z,19.74
2022-08-27T22:10:59.575Z,19.69
2022-08-27T22:13:01.627Z,19.68
2022-08-27T22:15:05.328Z,19.62
2022-08-27T22:17:07.077Z,19.58
2022-08-27T22:19:08.851Z,19.56
2022-08-27T22:21:12.310Z,19.31
2022-08-27T22:23:14.734Z,19.49
2022-08-27T22:25:17.087Z,19.49
2022-08-27T22:27:19.569Z,19.53
2022-08-27T22:29:21.368Z,19.47
2022-08-27T22:31:23.225Z,19.49
2022-08-27T22:33:25.001Z,19.48
2022-08-27T22:35:28.029Z,19.47
2022-08-27T22:37:30.846Z,19.39
2022-08-27T22:39:32.593Z,19.37
2022-08-27T22:41:41.931Z,19.32
2022-08-27T22:43:48.484Z,19.35
2022-08-27T22:45:50.284Z,19.33
2022-08-27T22:47:52.165Z,19.30
2022-08-27T22:49:53.924Z,19.32
2022-08-27T22:51:59.521Z,19.35
2022-08-27T22:54:01.298Z,19.34
2022-08-27T22:56:03.285Z,19.33
2022-08-27T22:58:05.140Z,19.31
2022-08-27T23:00:11.679Z,19.27
2022-08-27T23:02:13.431Z,19.27
2022-08-27T23:04:15.303Z,19.25
2022-08-27T23:06:17.470Z,19.27
2022-08-27T23:08:19.284Z,19.14
2022-08-27T23:10:23.899Z,19.22
2022-08-27T23:12:25.855Z,19.17
2022-08-27T23:14:29.994Z,19.11
2022-08-27T23:16:31.913Z,19.06
2022-08-27T23:18:33.710Z,19.04
2022-08-27T23:20:35.466Z,19.09
2022-08-27T23:22:38.006Z,19.03
2022-08-27T23:24:39.749Z,19.02
2022-08-27T23:26:41.763Z,18.98
2022-08-27T23:28:43.823Z,18.98
2022-08-27T23:30:45.829Z,18.98
2022-08-27T23:32:51.168Z,18.98
2022-08-27T23:34:56.014Z,18.95
2022-08-27T23:36:58.006Z,18.91
2022-08-27T23:38:59.828Z,18.87
2022-08-27T23:41:02.043Z,18.89
2022-08-27T23:43:04.183Z,18.86
2022-08-27T23:45:08.047Z,18.86
2022-08-27T23:47:10.166Z,18.79
2022-08-27T23:49:11.894Z,18.80
2022-08-27T23:51:14.163Z,18.83
2022-08-27T23:53:15.994Z,18.80
2022-08-27T23:55:18.265Z,18.76
2022-08-27T23:57:20.012Z,18.72
2022-08-27T23:59:21.787Z,18.71
